createdAt,value
2022-11-16T00:00:02.799Z,73.66
2022-11-16T00:02:32.206Z,73.33
2022-11-16T00:04:58.849Z,73.58
2022-11-16T00:07:26.772Z,73.01
2022-11-16T00:09:53.321Z,73.66
2022-11-16T00:12:19.809Z,72.73
2022-11-16T00:14:46.472Z,73.03
2022-11-16T00:17:12.906Z,73.29
2022-11-16T00:19:39.527Z,72.94
2022-11-16T00:22:05.999Z,72.86
2022-11-16T00:24:34.178Z,73.12
2022-11-16T00:27:00.919Z,72.75
2022-11-16T00:29:27.701Z,73.01
2022-11-16T00:31:54.886Z,73.68
2022-11-16T00:34:22.080Z,72.93
2022-11-16T00:36:48.934Z,72.65
2022-11-16T00:39:16.819Z,73.06
2022-11-16T00:41:45.304Z,72.72
2022-11-16T00:44:12.045Z,73.09
2022-11-16T00:46:38.662Z,72.92
2022-11-16T00:49:06.050Z,72.63
2022-11-16T00:51:32.788Z,72.75
2022-11-16T00:53:59.287Z,73.32
2022-11-16T00:56:25.782Z,73.09
2022-11-16T00:58:53.652Z,72.93
2022-11-16T01:01:20.294Z,73.87
2022-11-16T01:03:46.812Z,74.26
2022-11-16T01:06:15.122Z,74.07
2022-11-16T01:08:43.120Z,73.62
2022-11-16T01:11:12.511Z,73.46
2022-11-16T01:13:38.971Z,73.83
2022-11-16T01:16:07.271Z,73.35
2022-11-16T01:18:34.153Z,73.55
2022-11-16T01:21:00.818Z,74.03
2022-11-16T01:23:27.325Z,73.53
2022-11-16T01:25:56.335Z,73.81
2022-11-16T01:28:22.844Z,73.82
2022-11-16T01:30:49.622Z,74.06
2022-11-16T01:33:17.425Z,73.95
2022-11-16T01:35:43.917Z,74.16
2022-11-16T01:38:10.757Z,74.21
2022-11-16T01:40:37.918Z,74.51
2022-11-16T01:43:15.622Z,74.13
2022-11-16T01:45:42.406Z,73.81
2022-11-16T01:48:10.680Z,73.68
2022-11-16T01:50:38.938Z,74.90
2022-11-16T01:53:08.394Z,74.51
2022-11-16T01:55:37.187Z,75.39
2022-11-16T01:58:04.454Z,74.97
2022-11-16T02:00:30.950Z,74.63
2022-11-16T02:02:57.413Z,74.53
2022-11-16T02:05:33.998Z,74.77
2022-11-16T02:08:18.501Z,74.64
2022-11-16T02:11:02.756Z,75.47
2022-11-16T02:13:39.664Z,75.27
2022-11-16T02:16:17.055Z,75.23
2022-11-16T02:18:51.848Z,75.10
2022-11-16T02:21:35.798Z,74.95
2022-11-16T02:24:34.117Z,75.20
2022-11-16T02:27:40.185Z,74.54
2022-11-16T02:30:08.938Z,74.57
2022-11-16T02:32:41.145Z,74.92
2022-11-16T02:35:13.610Z,75.60
2022-11-16T02:37:45.350Z,75.33
2022-11-16T02:40:16.040Z,75.42
2022-11-16T02:42:45.479Z,74.55
2022-11-16T02:45:19.307Z,75.19
2022-11-16T02:47:48.410Z,75.03
2022-11-16T02:50:17.933Z,74.64
2022-11-16T02:52:44.547Z,74.37
2022-11-16T02:55:11.756Z,74.28
2022-11-16T02:57:44.286Z,74.31
2022-11-16T03:00:18.736Z,73.54
2022-11-16T03:02:54.103Z,74.07
2022-11-16T03:05:24.881Z,73.93
2022-11-16T03:07:59.417Z,74.19
2022-11-16T03:10:26.703Z,73.99
2022-11-16T03:12:53.492Z,73.48
2022-11-16T03:15:21.623Z,74.42
2022-11-16T03:17:50.255Z,74.01
2022-11-16T03:20:21.848Z,73.91
2022-11-16T03:22:52.279Z,74.31
2022-11-16T03:25:20.704Z,73.91
2022-11-16T03:27:52.973Z,73.58
2022-11-16T03:30:24.054Z,73.40
2022-11-16T03:32:58.714Z,73.12
2022-11-16T03:35:30.086Z,72.76
2022-11-16T03:37:59.708Z,73.43
2022-11-16T03:40:28.953Z,73.24
2022-11-16T03:42:56.508Z,73.69
2022-11-16T03:45:24.721Z,73.05
2022-11-16T03:47:51.334Z,73.44
2022-11-16T03:50:17.837Z,73.55
2022-11-16T03:52:44.328Z,73.79
2022-11-16T03:55:10.934Z,73.70
2022-11-16T03:57:37.397Z,73.35
2022-11-16T04:00:04.673Z,73.98
2022-11-16T04:02:32.531Z,73.93
2022-11-16T04:04:59.031Z,73.63
2022-11-16T04:07:25.632Z,73.38
2022-11-16T04:09:52.146Z,74.08
2022-11-16T04:12:18.632Z,74.22
2022-11-16T04:14:45.243Z,73.84
2022-11-16T04:17:13.082Z,74.30
2022-11-16T04:19:40.934Z,73.57
2022-11-16T04:22:14.284Z,73.83
2022-11-16T04:24:44.140Z,73.76
2022-11-16T04:27:15.541Z,73.68
2022-11-16T04:29:42.444Z,73.54
2022-11-16T04:32:10.095Z,73.24
2022-11-16T04:34:36.585Z,73.69
2022-11-16T04:37:04.397Z,73.22
2022-11-16T04:39:30.916Z,74.06
2022-11-16T04:41:57.522Z,73.92
2022-11-16T04:44:29.795Z,73.81
2022-11-16T04:46:56.714Z,74.54
2022-11-16T04:49:23.290Z,74.15
2022-11-16T04:51:49.781Z,74.13
2022-11-16T04:54:17.878Z,73.55
2022-11-16T04:56:44.445Z,73.69
2022-11-16T04:59:11.081Z,74.37
2022-11-16T05:01:37.579Z,74.58
2022-11-16T05:04:04.510Z,73.89
2022-11-16T05:06:31.043Z,74.23
2022-11-16T05:08:57.521Z,73.99
2022-11-16T05:11:25.400Z,74.39
2022-11-16T05:13:51.996Z,74.77
2022-11-16T05:16:18.535Z,74.48
2022-11-16T05:18:45.261Z,74.29
2022-11-16T05:21:11.730Z,74.02
2022-11-16T05:23:38.403Z,74.48
2022-11-16T05:26:05.064Z,73.96
2022-11-16T05:28:33.253Z,74.50
2022-11-16T05:31:01.274Z,74.78
2022-11-16T05:33:27.781Z,73.90
2022-11-16T05:35:54.380Z,74.35
2022-11-16T05:38:20.855Z,74.13
2022-11-16T05:40:47.633Z,73.66
2022-11-16T05:43:14.219Z,72.80
2022-11-16T05:45:42.572Z,73.34
2022-11-16T05:48:09.100Z,73.37
2022-11-16T05:50:41.362Z,73.50
2022-11-16T05:53:09.263Z,73.14
2022-11-16T05:55:35.952Z,73.05
2022-11-16T05:58:05.002Z,73.20
2022-11-16T06:00:31.535Z,73.44
2022-11-16T06:02:59.409Z,73.38
2022-11-16T06:05:26.020Z,73.00
2022-11-16T06:07:52.839Z,73.65
2022-11-16T06:10:19.381Z,72.61
2022-11-16T06:12:45.927Z,73.05
2022-11-16T06:15:12.476Z,73.17
2022-11-16T06:17:41.201Z,73.31
2022-11-16T06:20:11.113Z,73.47
2022-11-16T06:22:38.171Z,73.25
2022-11-16T06:25:05.727Z,73.32
2022-11-16T06:27:32.515Z,73.50
2022-11-16T06:29:59.043Z,73.00
2022-11-16T06:32:25.538Z,72.79
2022-11-16T06:34:52.033Z,72.34
2022-11-16T06:37:19.933Z,72.78
2022-11-16T06:39:46.444Z,72.81
2022-11-16T06:42:12.943Z,72.82
2022-11-16T06:44:39.534Z,73.15
2022-11-16T06:47:06.028Z,73.57
2022-11-16T06:49:32.487Z,74.02
2022-11-16T06:51:59.135Z,73.71
2022-11-16T06:54:26.962Z,73.79
2022-11-16T06:56:53.480Z,73.49
2022-11-16T06:59:20.326Z,73.67
2022-11-16T07:01:47.037Z,73.49
2022-11-16T07:04:13.636Z,73.37
2022-11-16T07:06:40.461Z,73.14
2022-11-16T07:09:07.614Z,73.17
2022-11-16T07:11:36.275Z,73.33
2022-11-16T07:14:03.060Z,73.03
2022-11-16T07:16:29.854Z,72.73
2022-11-16T07:18:56.806Z,72.45
2022-11-16T07:21:23.923Z,71.98
2022-11-16T07:23:50.490Z,71.88
2022-11-16T07:26:17.468Z,71.55
2022-11-16T07:28:48.456Z,70.84
2022-11-16T07:31:15.906Z,70.62
2022-11-16T07:33:42.579Z,70.10
2022-11-16T07:36:11.079Z,70.27
2022-11-16T07:38:37.866Z,69.84
2022-11-16T07:41:06.587Z,68.90
2022-11-16T07:43:34.202Z,68.72
2022-11-16T07:46:28.292Z,68.56
2022-11-16T07:48:51.833Z,68.12
2022-11-16T07:51:19.080Z,67.98
2022-11-16T07:53:46.275Z,68.49
2022-11-16T07:56:13.127Z,68.50
2022-11-16T07:58:39.850Z,68.35
2022-11-16T08:01:09.873Z,68.30
2022-11-16T08:03:39.305Z,67.74
2022-11-16T08:06:07.778Z,67.48
2022-11-16T08:08:34.805Z,66.81
2022-11-16T08:11:02.438Z,66.35
2022-11-16T08:13:29.490Z,65.78
2022-11-16T08:15:59.903Z,66.40
2022-11-16T08:18:27.830Z,65.87
2022-11-16T08:20:54.364Z,65.55
2022-11-16T08:23:21.000Z,65.35
2022-11-16T08:25:47.513Z,65.28
2022-11-16T08:28:13.999Z,64.39
2022-11-16T08:30:40.501Z,65.38
2022-11-16T08:33:07.558Z,65.47
2022-11-16T08:35:35.562Z,65.09
2022-11-16T08:38:02.188Z,65.18
2022-11-16T08:40:28.995Z,65.51
2022-11-16T08:42:55.527Z,65.20
2022-11-16T08:45:22.094Z,65.40
2022-11-16T08:47:48.676Z,65.00
2022-11-16T08:50:15.979Z,66.20
2022-11-16T08:52:44.035Z,65.85
2022-11-16T08:55:10.753Z,65.86
2022-11-16T08:57:46.235Z,65.52
2022-11-16T09:00:26.953Z,65.07
2022-11-16T09:02:53.973Z,64.50
2022-11-16T09:05:20.502Z,65.02
2022-11-16T09:07:48.366Z,64.42
2022-11-16T09:10:15.239Z,64.08
2022-11-16T09:12:41.760Z,63.32
2022-11-16T09:15:09.317Z,63.72
2022-11-16T09:17:35.836Z,62.31
2022-11-16T09:20:02.453Z,61.47
2022-11-16T09:22:28.945Z,60.86
2022-11-16T09:24:56.818Z,60.46
2022-11-16T09:27:23.411Z,59.86
2022-11-16T09:29:50.118Z,59.56
2022-11-16T09:32:16.641Z,59.40
2022-11-16T09:34:43.198Z,59.03
2022-11-16T09:37:09.699Z,58.64
2022-11-16T09:39:36.245Z,58.77
2022-11-16T09:42:25.485Z,58.61
2022-11-16T09:45:01.198Z,58.10
2022-11-16T09:47:40.136Z,58.43
2022-11-16T09:50:08.291Z,59.25
2022-11-16T09:52:44.138Z,58.56
2022-11-16T09:55:23.887Z,59.84
2022-11-16T09:57:54.324Z,59.59
2022-11-16T10:00:22.709Z,58.93
2022-11-16T10:02:59.989Z,59.86
2022-11-16T10:05:30.870Z,59.04
2022-11-16T10:08:18.183Z,58.08
2022-11-16T10:10:53.965Z,58.28
2022-11-16T10:13:36.706Z,57.16
2022-11-16T10:16:10.434Z,56.40
2022-11-16T10:18:46.994Z,56.58
2022-11-16T10:21:31.191Z,56.53
2022-11-16T10:24:16.055Z,57.21
2022-11-16T10:26:50.473Z,56.87
2022-11-16T10:29:31.669Z,56.19
2022-11-16T10:32:08.461Z,55.54
2022-11-16T10:34:45.503Z,54.85
2022-11-16T10:37:13.451Z,55.25
2022-11-16T10:39:40.973Z,56.06
2022-11-16T10:42:11.632Z,56.59
2022-11-16T10:44:44.042Z,57.17
2022-11-16T10:47:18.983Z,57.64
2022-11-16T10:49:53.503Z,56.95
2022-11-16T10:52:20.358Z,57.84
2022-11-16T10:54:46.891Z,57.58
2022-11-16T10:57:13.493Z,57.47
2022-11-16T10:59:43.383Z,57.36
2022-11-16T11:02:33.875Z,56.94
2022-11-16T11:05:04.549Z,56.51
2022-11-16T11:07:36.288Z,56.32
2022-11-16T11:10:03.856Z,55.58
2022-11-16T11:12:30.373Z,56.41
2022-11-16T11:15:05.131Z,56.18
2022-11-16T11:17:33.376Z,55.75
2022-11-16T11:20:01.979Z,56.10
2022-11-16T11:22:28.535Z,56.36
2022-11-16T11:24:55.152Z,55.90
2022-11-16T11:27:24.878Z,56.58
2022-11-16T11:29:53.535Z,55.41
2022-11-16T11:32:24.637Z,55.95
2022-11-16T11:34:53.695Z,55.87
2022-11-16T11:37:23.388Z,56.23
2022-11-16T11:40:05.537Z,55.58
2022-11-16T11:42:32.080Z,55.23
2022-11-16T11:45:02.059Z,55.47
2022-11-16T11:50:32.698Z,55.21
2022-11-16T11:53:05.365Z,54.77
2022-11-16T11:55:31.843Z,55.30
2022-11-16T11:58:00.212Z,55.05
2022-11-16T12:00:26.989Z,55.22
2022-11-16T12:03:21.746Z,54.87
2022-11-16T12:06:03.733Z,54.60
2022-11-16T12:08:47.245Z,54.55
2022-11-16T12:11:23.036Z,55.71
2022-11-16T12:14:00.328Z,54.90
2022-11-16T12:16:32.877Z,54.35
2022-11-16T12:22:28.559Z,55.87
2022-11-16T12:25:10.005Z,55.42
2022-11-16T12:27:46.966Z,54.74
2022-11-16T12:30:16.949Z,54.87
2022-11-16T12:33:01.754Z,54.81
2022-11-16T12:35:48.722Z,55.15
2022-11-16T12:38:37.851Z,55.49
2022-11-16T12:41:22.719Z,55.58
2022-11-16T12:43:59.325Z,54.95
2022-11-16T12:46:34.887Z,54.70
2022-11-16T12:49:31.380Z,54.43
2022-11-16T12:52:11.316Z,54.98
2022-11-16T12:55:25.358Z,54.58
2022-11-16T12:58:17.242Z,54.45
2022-11-16T13:00:55.992Z,54.81
2022-11-16T13:03:33.850Z,54.79
2022-11-16T13:06:05.790Z,54.66
2022-11-16T13:08:43.696Z,53.81
2022-11-16T13:11:17.702Z,54.62
2022-11-16T13:13:52.778Z,54.22
2022-11-16T13:16:21.663Z,54.22
2022-11-16T13:18:48.515Z,54.01
2022-11-16T13:21:35.982Z,54.13
2022-11-16T13:24:14.080Z,53.26
2022-11-16T13:26:49.139Z,53.06
2022-11-16T13:29:28.549Z,53.36
2022-11-16T13:32:01.897Z,53.80
2022-11-16T13:34:33.331Z,53.43
2022-11-16T13:37:02.783Z,53.89
2022-11-16T13:40:09.348Z,53.82
2022-11-16T13:42:44.455Z,53.83
2022-11-16T13:45:17.911Z,54.04
2022-11-16T13:47:49.975Z,53.98
2022-11-16T13:50:19.522Z,54.21
2022-11-16T13:53:46.237Z,53.99
2022-11-16T13:55:38.903Z,53.76
2022-11-16T13:58:11.115Z,53.29
2022-11-16T14:00:40.058Z,53.45
2022-11-16T14:03:29.087Z,54.66
2022-11-16T14:05:55.747Z,54.00
2022-11-16T14:08:50.562Z,54.51
2022-11-16T14:11:35.844Z,54.16
2022-11-16T14:14:05.959Z,54.13
2022-11-16T14:16:54.061Z,54.30
2022-11-16T14:19:53.454Z,54.87
2022-11-16T14:22:50.733Z,55.47
2022-11-16T14:25:30.334Z,55.35
2022-11-16T14:28:08.752Z,55.43
2022-11-16T14:30:50.915Z,55.68
2022-11-16T14:33:29.431Z,55.76
2022-11-16T14:35:56.271Z,55.54
2022-11-16T14:38:30.040Z,56.39
2022-11-16T14:40:59.976Z,55.59
2022-11-16T14:43:32.884Z,56.32
2022-11-16T14:46:06.147Z,56.20
2022-11-16T14:48:33.714Z,56.41
2022-11-16T14:51:06.906Z,56.40
2022-11-16T14:53:36.787Z,56.66
2022-11-16T14:56:10.077Z,56.65
2022-11-16T14:58:37.335Z,56.59
2022-11-16T15:01:13.897Z,56.61
2022-11-16T15:03:48.641Z,56.65
2022-11-16T15:06:16.353Z,56.66
2022-11-16T15:08:46.761Z,56.94
2022-11-16T15:11:22.344Z,57.30
2022-11-16T15:13:52.367Z,57.47
2022-11-16T15:16:20.798Z,57.86
2022-11-16T15:18:58.259Z,57.75
2022-11-16T15:21:26.288Z,57.82
2022-11-16T15:24:23.510Z,58.24
2022-11-16T15:26:40.629Z,58.06
2022-11-16T15:29:14.700Z,58.86
2022-11-16T15:31:46.025Z,58.74
2022-11-16T15:34:13.944Z,58.85
2022-11-16T15:36:42.684Z,59.24
2022-11-16T15:39:13.948Z,59.52
2022-11-16T15:41:43.446Z,59.29
2022-11-16T15:44:15.557Z,59.54
2022-11-16T15:46:47.171Z,59.86
2022-11-16T15:49:30.334Z,60.13
2022-11-16T15:51:58.250Z,60.50
2022-11-16T15:54:26.659Z,60.13
2022-11-16T15:56:55.455Z,60.23
2022-11-16T15:59:26.799Z,60.62
2022-11-16T16:01:55.650Z,60.31
2022-11-16T16:04:24.240Z,61.01
2022-11-16T16:06:52.656Z,61.02
2022-11-16T16:09:25.824Z,60.83
2022-11-16T16:11:54.202Z,60.77
2022-11-16T16:14:26.660Z,61.35
2022-11-16T16:16:56.723Z,61.60
2022-11-16T16:19:33.569Z,61.66
2022-11-16T16:22:00.418Z,61.83
2022-11-16T16:24:39.840Z,62.20
2022-11-16T16:27:15.545Z,62.22
2022-11-16T16:29:44.754Z,62.38
2022-11-16T16:32:23.641Z,62.44
2022-11-16T16:34:53.014Z,62.44
2022-11-16T16:37:25.588Z,62.18
2022-11-16T16:39:52.187Z,61.79
2022-11-16T16:42:19.004Z,61.98
2022-11-16T16:44:46.937Z,61.79
2022-11-16T16:47:13.957Z,62.22
2022-11-16T16:49:43.300Z,62.42
2022-11-16T16:52:12.046Z,62.56
2022-11-16T16:54:39.950Z,63.16
2022-11-16T16:57:07.136Z,63.17
2022-11-16T16:59:33.667Z,63.44
2022-11-16T17:02:00.544Z,63.30
2022-11-16T17:04:27.077Z,64.06
2022-11-16T17:06:55.422Z,63.96
2022-11-16T17:09:21.995Z,63.71
2022-11-16T17:11:49.284Z,63.90
2022-11-16T17:14:16.052Z,64.39
2022-11-16T17:16:45.052Z,64.52
2022-11-16T17:19:12.067Z,64.40
2022-11-16T17:21:38.664Z,64.83
2022-11-16T17:24:08.322Z,65.10
2022-11-16T17:26:35.640Z,64.95
2022-11-16T17:29:02.687Z,65.30
2022-11-16T17:31:29.383Z,65.17
2022-11-16T17:33:56.598Z,65.42
2022-11-16T17:36:23.766Z,65.69
2022-11-16T17:38:53.446Z,66.15
2022-11-16T17:41:21.736Z,66.05
2022-11-16T17:43:51.646Z,66.12
2022-11-16T17:46:20.719Z,65.75
2022-11-16T17:48:51.562Z,65.74
2022-11-16T17:51:23.373Z,66.53
2022-11-16T17:53:51.960Z,66.70
2022-11-16T17:56:22.186Z,66.01
2022-11-16T17:58:49.690Z,66.62
2022-11-16T18:01:16.537Z,66.53
2022-11-16T18:03:43.491Z,66.74
2022-11-16T18:06:14.911Z,66.74
2022-11-16T18:08:42.913Z,66.74
2022-11-16T18:11:15.168Z,66.56
2022-11-16T18:13:44.712Z,66.68
2022-11-16T18:16:13.059Z,66.50
2022-11-16T18:18:40.277Z,66.84
2022-11-16T18:21:08.213Z,66.82
2022-11-16T18:23:40.216Z,66.62
2022-11-16T18:26:11.109Z,66.99
2022-11-16T18:28:37.858Z,66.99
2022-11-16T18:31:10.754Z,66.85
2022-11-16T18:33:38.586Z,67.20
2022-11-16T18:36:06.464Z,67.09
2022-11-16T18:38:33.245Z,67.11
2022-11-16T18:41:07.025Z,67.46
2022-11-16T18:43:37.243Z,67.57
2022-11-16T18:46:06.368Z,67.60
2022-11-16T18:48:33.179Z,67.34
2022-11-16T18:51:00.911Z,67.45
2022-11-16T18:53:28.604Z,67.82
2022-11-16T18:55:58.212Z,67.59
2022-11-16T18:58:49.272Z,67.43
2022-11-16T19:01:17.960Z,67.77
2022-11-16T19:03:44.848Z,67.65
2022-11-16T19:06:12.330Z,67.80
2022-11-16T19:08:40.910Z,67.09
2022-11-16T19:11:09.919Z,67.31
2022-11-16T19:13:37.163Z,66.90
2022-11-16T19:16:04.425Z,67.07
2022-11-16T19:18:32.448Z,67.01
2022-11-16T19:21:03.835Z,66.93
2022-11-16T19:23:30.476Z,67.05
2022-11-16T19:26:00.583Z,66.92
2022-11-16T19:28:27.142Z,66.86
2022-11-16T19:30:53.748Z,66.84
2022-11-16T19:33:20.397Z,66.90
2022-11-16T19:35:48.341Z,66.80
2022-11-16T19:38:15.082Z,66.78
2022-11-16T19:40:41.779Z,66.79
2022-11-16T19:43:08.670Z,66.91
2022-11-16T19:45:35.584Z,66.91
2022-11-16T19:48:02.201Z,66.79
2022-11-16T19:50:29.590Z,66.25
2022-11-16T19:52:57.474Z,66.22
2022-11-16T19:55:24.530Z,66.13
2022-11-16T19:57:51.457Z,65.98
2022-11-16T20:00:18.592Z,65.30
2022-11-16T20:02:57.769Z,64.95
2022-11-16T20:05:31.450Z,64.85
2022-11-16T20:08:14.544Z,65.15
2022-11-16T20:10:41.365Z,65.10
2022-11-16T20:13:08.714Z,65.40
2022-11-16T20:18:24.615Z,65.78
2022-11-16T20:20:54.418Z,65.70
2022-11-16T22:33:51.961Z,65.25
2022-11-16T22:43:34.592Z,65.96
2022-11-16T22:46:37.292Z,65.66
2022-11-16T22:52:45.537Z,67.20
2022-11-16T22:55:38.805Z,66.99
2022-11-16T23:03:32.546Z,67.51
2022-11-16T23:05:43.692Z,67.84
2022-11-16T23:15:30.443Z,69.47
2022-11-16T23:21:28.524Z,69.39
2022-11-16T23:24:22.958Z,70.24
2022-11-16T23:26:53.461Z,70.18
2022-11-16T23:32:58.617Z,70.42
2022-11-16T23:35:32.114Z,70.44
2022-11-16T23:44:57.593Z,71.30
2022-11-16T23:47:26.768Z,70.82
2022-11-16T23:50:40.974Z,71.29
2022-11-16T23:53:14.885Z,71.71
2022-11-16T23:55:45.213Z,71.52
2022-11-16T23:58:15.942Z,71.77
